Terminal Aerodrome Forecast
Issued by NWS

Current Version | Previous Version | Graphics & Text | Print | Product List | Glossary On
Versions: 1 2 3 4 5 6 7 8 9 10 11 12 13 14 15 16 17 18 19
000
FTUS41 KPBZ 241002 AAC
TAFHLG
TAF AMD
KHLG 241002Z 2410/2506 VRB02KT 4SM BR SKC
      TEMPO 2410/2412 1 1/2SM BR SCT004
     FM241300 27008KT P6SM SKC=

USA.gov is the U.S. government's official web portal to all federal, state and local government web resources and services.